Arthog, United Kingdom
Current Conditions -  °F | °C
As of 10:50 AM on Saturday 20 Dec 2014 (Local Time) from EGOV Reporting Station
Scattered Clouds Scattered Clouds  
Wind Chill: 41°   Ceiling: Unl
Heat Index: 48°   Visibility: 6mi
Dew Point: 39°   Wind: 22mph
Humidity: 71%   Direction: 280°W
Pressure: 30.3"   Gusts: NA
Location:  52.71°N, 4.01°W
Report Text: EGOV 201050Z AUTO 28019KT 9999 SCT020/// 09/04 Q1026
Loading
Personal Weather Stations






























Interactive Weather Map New forecast layout! Learn more

10-Day Weather Forecast

Advertisements
Track Severe Weather on mobile